Time;durP1;ratioP1;P1;durP2;ratioP2;P2;SDS_P1;SDS_P2;PMS_P1;PMS_P2;Temp;Humidity;BMP_temperature;BMP_pressure;BME280_temperature;BME280_humidity;BME280_pressure;Samples;Min_cycle;Max_cycle;Signal;HPM_P1;HPM_P2
2021/04/05 00:00:16;;;;;;;43.30;24.77;;;;;;;10.38;87.12;100749.19;5033809;28;20025;-90
2021/04/05 00:02:42;;;;;;;48.45;25.70;;;;;;;10.45;86.85;100755.78;5032647;28;20380;-89
2021/04/05 00:05:13;;;;;;;44.95;24.67;;;;;;;10.49;86.47;100753.81;5013732;28;20022;-88
2021/04/05 00:07:41;;;;;;;45.90;24.50;;;;;;;10.48;86.29;100760.81;5020867;28;20032;-89
2021/04/05 00:10:11;;;;;;;48.33;26.27;;;;;;;10.30;86.60;100751.47;5031667;28;20477;-88
2021/04/05 00:12:36;;;;;;;44.03;24.83;;;;;;;10.42;86.56;100765.59;5032785;28;20033;-89
2021/04/05 00:15:05;;;;;;;46.78;24.77;;;;;;;10.25;87.28;100769.25;5033312;28;20021;-90
2021/04/05 00:17:30;;;;;;;47.95;24.73;;;;;;;9.97;89.29;100767.41;5033137;28;20049;-89
2021/04/05 00:19:56;;;;;;;51.28;27.83;;;;;;;9.97;90.28;100757.75;5032889;28;20400;-89
2021/04/05 00:22:21;;;;;;;51.92;26.73;;;;;;;10.34;87.64;100760.81;5032092;28;20039;-89
2021/04/05 00:24:46;;;;;;;49.25;26.38;;;;;;;10.03;89.77;100767.91;5031074;28;20463;-89
2021/04/05 00:27:12;;;;;;;43.25;26.45;;;;;;;10.29;88.28;100755.84;5032481;28;20391;-90
2021/04/05 00:29:37;;;;;;;52.45;26.52;;;;;;;10.32;87.21;100760.91;5033349;28;20022;-89
2021/04/05 00:32:03;;;;;;;45.97;24.75;;;;;;;10.04;89.46;100761.72;5031685;28;20053;-89
2021/04/05 00:34:28;;;;;;;46.70;27.88;;;;;;;10.24;88.67;100752.63;5029965;28;20037;-89
2021/04/05 00:36:53;;;;;;;48.65;27.25;;;;;;;10.08;89.58;100757.13;5031353;28;20437;-89
2021/04/05 00:39:19;;;;;;;50.17;27.52;;;;;;;9.89;90.64;100741.66;5032569;28;20029;-89
2021/04/05 00:41:44;;;;;;;43.13;25.63;;;;;;;10.27;88.43;100741.97;5031586;28;20029;-89
2021/04/05 00:44:10;;;;;;;49.83;27.40;;;;;;;10.00;89.78;100738.41;5031602;28;20037;-89
2021/04/05 00:46:35;;;;;;;52.38;26.88;;;;;;;10.13;88.49;100744.59;5033485;28;20567;-89
2021/04/05 00:49:02;;;;;;;48.25;26.50;;;;;;;10.29;87.16;100742.72;5031119;28;20082;-89
2021/04/05 00:51:27;;;;;;;53.65;26.33;;;;;;;10.04;88.86;100739.91;5032968;28;20033;-89
2021/04/05 00:53:53;;;;;;;44.47;26.52;;;;;;;10.17;88.77;100734.72;5016016;28;20529;-89
2021/04/05 00:56:22;;;;;;;51.03;26.42;;;;;;;9.86;89.88;100716.44;5028220;28;20018;-89
2021/04/05 00:58:48;;;;;;;48.42;26.88;;;;;;;10.03;89.36;100719.84;5030367;28;20123;-89
2021/04/05 01:01:20;;;;;;;47.50;25.92;;;;;;;9.99;89.66;100718.34;5031094;28;20025;-88
2021/04/05 01:03:47;;;;;;;41.72;24.90;;;;;;;9.86;89.45;100713.84;5031217;28;20382;-89
2021/04/05 01:06:34;;;;;;;48.10;26.23;;;;;;;9.93;90.56;100716.91;5032624;28;20041;-90
2021/04/05 01:09:01;;;;;;;41.45;24.45;;;;;;;10.20;88.23;100706.53;5027924;28;20087;-89
2021/04/05 01:11:29;;;;;;;44.92;24.80;;;;;;;10.07;89.12;100708.22;5032237;28;20105;-89
2021/04/05 01:13:55;;;;;;;40.47;24.33;;;;;;;10.28;87.28;100701.66;5031155;28;20021;-89
2021/04/05 01:16:24;;;;;;;43.33;23.52;;;;;;;10.29;86.93;100700.72;5031007;28;20082;-89
2021/04/05 01:18:49;;;;;;;44.30;25.02;;;;;;;10.13;87.61;100692.13;5031834;28;20100;-89
2021/04/05 01:21:15;;;;;;;47.33;24.15;;;;;;;9.92;88.83;100679.34;5030855;28;20117;-89
2021/04/05 01:23:40;;;;;;;44.17;23.13;;;;;;;10.13;87.52;100660.63;5032154;28;20029;-89
2021/04/05 01:26:06;;;;;;;45.38;24.48;;;;;;;9.90;88.98;100665.50;5032165;28;20426;-89
2021/04/05 01:28:32;;;;;;;44.72;23.67;;;;;;;10.04;87.63;100669.91;5028919;28;20261;-89
2021/04/05 01:31:00;;;;;;;43.72;25.55;;;;;;;10.00;88.33;100671.03;5029862;28;20428;-88
2021/04/05 01:33:30;;;;;;;38.45;23.00;;;;;;;10.23;86.24;100666.13;5030090;28;20029;-89
2021/04/05 01:36:02;;;;;;;34.08;20.98;;;;;;;10.28;86.24;100658.81;5030640;28;20025;-89
2021/04/05 01:38:49;;;;;;;41.03;24.85;;;;;;;10.10;86.76;100666.06;5029322;28;20056;-89
2021/04/05 01:41:24;;;;;;;44.58;23.23;;;;;;;10.28;86.58;100659.66;5030227;28;20076;-89
2021/04/05 01:43:50;;;;;;;45.75;23.08;;;;;;;10.05;86.65;100660.25;5029403;28;20034;-89
2021/04/05 01:46:18;;;;;;;38.60;22.55;;;;;;;10.12;86.17;100659.78;5031838;28;20079;-89
2021/04/05 01:48:43;;;;;;;37.40;21.23;;;;;;;10.16;85.68;100652.56;5030821;28;20070;-88
2021/04/05 01:51:17;;;;;;;41.50;21.88;;;;;;;9.99;87.26;100642.25;5030142;28;20443;-89
2021/04/05 01:53:44;;;;;;;40.75;22.08;;;;;;;10.06;86.63;100638.31;5031072;28;20075;-89
2021/04/05 01:56:12;;;;;;;38.22;20.85;;;;;;;10.08;86.12;100645.16;5031654;28;20102;-88
2021/04/05 01:58:39;;;;;;;36.95;22.42;;;;;;;10.05;86.24;100636.63;5028358;28;20025;-89
2021/04/05 02:01:09;;;;;;;42.72;21.48;;;;;;;10.18;85.32;100631.47;5030151;28;20032;-89
2021/04/05 02:03:35;;;;;;;36.10;20.63;;;;;;;10.10;84.94;100627.53;5031428;28;20029;-88
2021/04/05 02:06:06;;;;;;;40.58;19.88;;;;;;;10.04;85.68;100640.22;5030873;28;20037;-88
2021/04/05 02:08:32;;;;;;;30.20;18.38;;;;;;;10.00;85.61;100634.31;5029519;28;20048;-89
2021/04/05 02:11:05;;;;;;;29.40;18.15;;;;;;;10.02;85.33;100627.19;5030871;28;20057;-88
2021/04/05 02:13:31;;;;;;;36.10;18.65;;;;;;;9.87;86.09;100622.88;5030752;28;20038;-89
2021/04/05 02:15:57;;;;;;;34.35;19.27;;;;;;;10.05;84.04;100616.50;5030121;28;20029;-89
2021/04/05 02:18:24;;;;;;;30.15;17.38;;;;;;;10.13;84.03;100623.91;5029870;28;20036;-89
2021/04/05 02:20:50;;;;;;;30.83;16.52;;;;;;;10.01;84.12;100624.66;5029933;28;20104;-89
2021/04/05 02:23:17;;;;;;;34.13;18.85;;;;;;;9.97;85.43;100628.41;5031378;28;20113;-89
2021/04/05 02:28:30;;;;;;;32.92;17.38;;;;;;;9.77;86.12;100622.59;5029496;28;21454;-89
2021/04/05 02:30:56;;;;;;;33.47;17.08;;;;;;;9.80;86.35;100625.03;5030366;28;20029;-88
2021/04/05 02:33:22;;;;;;;44.17;19.58;;;;;;;9.68;86.70;100625.78;5029737;28;20041;-89
2021/04/05 02:35:48;;;;;;;29.35;18.05;;;;;;;9.73;86.64;100613.22;5031298;28;20088;-89
2021/04/05 02:38:13;;;;;;;34.08;17.73;;;;;;;10.00;84.19;100602.00;5030459;28;20033;-89
2021/04/05 02:40:41;;;;;;;33.33;17.40;;;;;;;9.78;84.91;100592.81;5043983;22;20057;-86
2021/04/05 02:43:07;;;;;;;28.45;17.52;;;;;;;9.85;83.93;100588.91;5016040;28;20060;-87
2021/04/05 02:45:33;;;;;;;29.40;17.75;;;;;;;9.79;85.21;100593.66;5042810;28;20325;-86
2021/04/05 02:48:00;;;;;;;35.88;18.48;;;;;;;9.73;85.71;100600.97;5038551;28;20025;-86
2021/04/05 02:50:29;;;;;;;32.60;18.52;;;;;;;9.90;86.15;100607.78;5024196;28;20064;-86
2021/04/05 02:52:57;;;;;;;28.80;17.00;;;;;;;10.03;85.20;100613.13;5007740;28;20097;-86
2021/04/05 02:55:23;;;;;;;25.63;15.57;;;;;;;10.11;84.95;100605.63;5008290;28;20030;-86
2021/04/05 02:57:49;;;;;;;28.45;16.58;;;;;;;10.19;85.16;100607.78;5008262;28;20084;-87
2021/04/05 03:00:17;;;;;;;27.50;16.73;;;;;;;10.29;84.22;100605.41;5013889;28;20026;-86
2021/04/05 03:02:45;;;;;;;29.15;15.95;;;;;;;10.29;84.37;100601.00;4995967;28;20037;-87
2021/04/05 03:05:12;;;;;;;29.13;16.45;;;;;;;10.32;84.50;100597.34;4996179;28;20501;-87
2021/04/05 03:07:38;;;;;;;30.83;14.75;;;;;;;10.48;83.27;100589.34;5012240;28;20033;-86
2021/04/05 03:10:08;;;;;;;26.88;14.85;;;;;;;10.26;83.84;100582.81;5012224;28;20384;-86
2021/04/05 03:12:38;;;;;;;25.08;14.07;;;;;;;10.28;83.34;100575.66;5012157;28;20104;-86
2021/04/05 03:15:06;;;;;;;28.42;13.63;;;;;;;10.20;82.93;100574.50;5013569;28;20018;-87
2021/04/05 03:17:34;;;;;;;27.23;12.80;;;;;;;10.23;82.60;100580.41;5012157;28;20052;-87
2021/04/05 03:19:59;;;;;;;19.42;8.43;;;;;;;9.89;81.78;100565.91;5013663;28;20028;-86
2021/04/05 03:22:25;;;;;;;19.65;8.13;;;;;;;10.05;81.49;100577.16;5008987;28;20030;-86
2021/04/05 03:24:50;;;;;;;12.90;6.88;;;;;;;10.24;80.24;100573.34;4995061;28;20041;-86
2021/04/05 03:27:16;;;;;;;14.73;7.05;;;;;;;10.29;79.81;100566.88;5008042;28;20066;-87
2021/04/05 03:29:44;;;;;;;13.82;7.88;;;;;;;10.31;79.86;100574.69;4993150;28;20041;-87
2021/04/05 03:32:14;;;;;;;15.30;7.07;;;;;;;10.32;79.59;100558.81;5010649;28;20519;-86
2021/04/05 03:34:48;;;;;;;19.75;10.80;;;;;;;10.44;78.50;100558.97;5005352;28;20378;-88
2021/04/05 03:37:17;;;;;;;11.25;6.07;;;;;;;10.34;78.41;100555.28;4995120;28;20065;-87
2021/04/05 03:39:43;;;;;;;12.77;6.95;;;;;;;10.22;79.81;100570.81;5011028;28;20057;-87
2021/04/05 03:42:16;;;;;;;17.38;7.38;;;;;;;10.39;79.61;100567.16;5014276;28;20037;-86
2021/04/05 03:44:52;;;;;;;11.27;6.13;;;;;;;10.45;79.24;100581.69;4993382;28;20023;-86
2021/04/05 03:47:45;;;;;;;13.60;7.25;;;;;;;10.46;78.74;100583.34;4996551;28;20056;-87
2021/04/05 03:50:18;;;;;;;13.57;6.45;;;;;;;10.75;77.67;100572.75;5012942;28;20072;-87
2021/04/05 03:53:14;;;;;;;19.70;8.07;;;;;;;10.70;77.10;100568.63;5012496;28;20108;-87
2021/04/05 03:55:41;;;;;;;18.10;8.00;;;;;;;10.72;76.95;100565.88;5014322;28;20022;-86
2021/04/05 03:58:08;;;;;;;18.08;6.88;;;;;;;10.81;76.05;100561.81;5009329;28;20037;-86
2021/04/05 04:00:35;;;;;;;15.50;8.57;;;;;;;10.59;77.10;100570.28;5006818;28;20503;-87
2021/04/05 04:03:03;;;;;;;19.42;8.60;;;;;;;10.61;77.76;100566.59;4991282;28;20077;-87
2021/04/05 04:10:51;;;;;;;13.43;7.78;;;;;;;10.51;78.37;100566.34;5013232;28;20173;-86
2021/04/05 04:13:18;;;;;;;13.35;7.03;;;;;;;10.31;78.85;100558.94;5010651;28;20395;-86
2021/04/05 04:15:49;;;;;;;19.33;8.98;;;;;;;10.39;78.69;100561.06;5013840;28;20184;-87
2021/04/05 04:18:16;;;;;;;15.90;8.07;;;;;;;10.68;77.44;100553.91;5001060;28;20053;-87
2021/04/05 04:20:42;;;;;;;15.85;7.47;;;;;;;10.39;78.42;100542.69;4992873;28;20472;-86
2021/04/05 04:23:10;;;;;;;12.57;8.00;;;;;;;10.53;77.09;100542.63;5003109;28;20116;-86
2021/04/05 04:25:36;;;;;;;17.10;7.47;;;;;;;10.59;76.50;100547.47;5013727;28;20022;-86
2021/04/05 04:28:03;;;;;;;11.73;7.00;;;;;;;10.82;75.79;100550.34;5008737;28;20165;-86
2021/04/05 04:30:31;;;;;;;13.38;6.40;;;;;;;10.67;76.22;100553.06;5004447;28;20034;-86
2021/04/05 04:33:08;;;;;;;15.90;7.05;;;;;;;10.70;76.06;100547.63;4999612;28;20068;-87
2021/04/05 04:35:36;;;;;;;12.18;7.15;;;;;;;10.72;76.00;100542.25;4992633;28;20030;-86
2021/04/05 04:38:03;;;;;;;11.73;5.82;;;;;;;10.72;75.51;100544.88;5000797;28;20034;-87
2021/04/05 04:43:06;;;;;;;7.78;4.15;;;;;;;10.84;73.79;100546.69;5051646;28;20045;-89
2021/04/05 04:45:33;;;;;;;8.05;3.95;;;;;;;10.88;72.74;100549.94;5051105;28;20059;-88
2021/04/05 04:47:59;;;;;;;8.07;3.92;;;;;;;11.04;71.86;100544.53;5052754;28;20391;-89
2021/04/05 04:50:26;;;;;;;8.18;4.05;;;;;;;10.94;72.98;100548.69;5049782;28;20021;-89
2021/04/05 04:52:53;;;;;;;5.38;3.28;;;;;;;10.98;71.82;100550.16;5051277;28;20017;-88
2021/04/05 04:55:20;;;;;;;10.13;3.33;;;;;;;11.07;70.71;100539.03;5051342;28;20061;-88
2021/04/05 04:57:46;;;;;;;4.68;3.15;;;;;;;10.99;71.87;100542.19;5046953;28;20044;-89
2021/04/05 05:00:12;;;;;;;10.43;3.38;;;;;;;11.06;72.25;100548.72;5051149;28;20033;-88
2021/04/05 05:02:42;;;;;;;7.88;2.63;;;;;;;11.09;71.84;100547.66;5048699;28;20078;-88
2021/04/05 05:05:10;;;;;;;6.50;2.35;;;;;;;11.19;71.20;100550.50;5051146;28;20074;-88
2021/04/05 05:07:36;;;;;;;4.72;2.50;;;;;;;11.27;70.27;100550.81;5050517;28;20040;-89
2021/04/05 05:10:04;;;;;;;4.60;2.15;;;;;;;11.04;71.11;100563.75;5051397;28;20460;-89
2021/04/05 05:12:30;;;;;;;3.22;1.48;;;;;;;10.81;72.82;100569.69;5049599;28;20077;-89
2021/04/05 05:14:56;;;;;;;4.75;1.38;;;;;;;10.95;71.93;100561.72;5051002;28;20048;-89
2021/04/05 05:17:21;;;;;;;4.72;1.38;;;;;;;11.13;71.43;100564.06;5049792;28;20036;-89
2021/04/05 05:19:47;;;;;;;2.20;1.10;;;;;;;11.17;70.72;100550.59;5052273;28;20029;-89
2021/04/05 05:22:19;;;;;;;2.30;0.90;;;;;;;11.07;71.36;100552.19;5049145;28;20021;-88
2021/04/05 05:24:46;;;;;;;2.88;1.10;;;;;;;10.68;72.27;100553.91;5052469;28;20064;-88
2021/04/05 05:27:14;;;;;;;3.88;1.20;;;;;;;10.94;71.74;100569.72;5048855;28;20021;-88
2021/04/05 05:29:40;;;;;;;2.65;1.30;;;;;;;10.79;71.87;100568.97;5048564;28;20021;-89
2021/04/05 05:32:07;;;;;;;3.55;0.80;;;;;;;10.76;73.00;100577.03;5049845;28;20031;-89
2021/04/05 05:34:33;;;;;;;4.50;0.88;;;;;;;10.71;73.18;100588.69;5048153;28;20029;-88
2021/04/05 05:36:58;;;;;;;2.80;1.17;;;;;;;10.77;72.69;100586.59;5049162;28;20540;-89
2021/04/05 05:39:25;;;;;;;2.47;1.05;;;;;;;11.10;72.09;100588.78;5051831;28;20025;-88
2021/04/05 05:41:51;;;;;;;2.25;0.70;;;;;;;10.71;73.05;100596.56;5050245;28;20475;-89
2021/04/05 05:44:33;;;;;;;3.05;0.80;;;;;;;10.94;72.57;100588.09;5050446;28;20052;-88
2021/04/05 05:47:27;;;;;;;5.63;0.93;;;;;;;10.81;71.68;100594.16;5051652;28;20115;-89
2021/04/05 05:50:00;;;;;;;2.38;0.82;;;;;;;11.38;69.93;100597.41;5045970;28;20029;-89
2021/04/05 05:52:56;;;;;;;3.97;0.80;;;;;;;11.36;68.56;100615.91;5052034;28;20032;-88
2021/04/05 05:55:45;;;;;;;4.47;1.10;;;;;;;11.10;68.69;100631.66;5051254;28;20025;-89
2021/04/05 05:58:59;;;;;;;8.07;1.80;;;;;;;11.14;67.84;100634.06;5050280;28;20056;-89
2021/04/05 06:01:40;;;;;;;12.23;2.40;;;;;;;10.87;67.31;100633.16;5042103;28;20265;-89
2021/04/05 06:04:33;;;;;;;11.60;2.83;;;;;;;10.55;67.57;100629.19;5051730;28;20029;-89
2021/04/05 06:07:24;;;;;;;12.15;3.22;;;;;;;10.98;66.83;100637.72;5051421;28;20025;-89
2021/04/05 06:10:43;;;;;;;15.55;2.58;;;;;;;10.86;65.75;100634.13;5051398;28;20108;-89
2021/04/05 06:13:09;;;;;;;11.27;2.35;;;;;;;10.65;66.05;100652.09;5012540;28;20400;-88
2021/04/05 06:16:22;;;;;;;15.52;3.58;;;;;;;10.70;65.20;100663.16;5049385;28;20048;-89
2021/04/05 06:18:59;;;;;;;12.45;3.08;;;;;;;10.56;65.49;100671.06;5032297;28;20033;-88
2021/04/05 06:21:49;;;;;;;10.95;3.35;;;;;;;10.65;64.38;100662.63;5051303;28;20029;-88
2021/04/05 06:24:52;;;;;;;11.27;3.55;;;;;;;9.95;66.33;100654.72;5051407;28;20021;-88
2021/04/05 06:27:31;;;;;;;14.00;3.15;;;;;;;10.45;64.38;100666.50;5051050;28;20021;-89
2021/04/05 06:30:13;;;;;;;16.63;3.65;;;;;;;10.38;64.17;100673.06;5044721;28;20101;-89
2021/04/05 06:32:47;;;;;;;14.27;4.00;;;;;;;10.36;62.98;100690.72;5029938;28;20105;-89
2021/04/05 06:35:34;;;;;;;15.25;3.85;;;;;;;10.02;63.69;100687.50;5033943;28;20537;-88
2021/04/05 06:38:16;;;;;;;16.33;3.65;;;;;;;9.97;60.56;100691.34;5035272;28;20108;-88
2021/04/05 06:40:44;;;;;;;12.85;3.22;;;;;;;10.10;58.75;100692.28;5035264;28;20036;-89
2021/04/05 06:43:31;;;;;;;12.23;3.30;;;;;;;10.05;57.28;100699.59;5033967;28;20025;-89
2021/04/05 06:46:04;;;;;;;10.85;2.97;;;;;;;10.03;56.22;100690.97;5052550;28;20029;-88
2021/04/05 06:48:53;;;;;;;15.25;3.13;;;;;;;9.92;55.53;100694.25;5055043;28;20525;-88
2021/04/05 06:51:31;;;;;;;8.20;3.20;;;;;;;9.72;55.52;100703.34;5054877;28;20055;-89
2021/04/05 06:54:21;;;;;;;13.07;4.10;;;;;;;9.52;54.90;100707.97;5053580;28;20120;-88
2021/04/05 06:57:05;;;;;;;8.88;2.70;;;;;;;9.72;54.00;100708.56;5053550;28;20025;-89
2021/04/05 06:59:57;;;;;;;13.35;3.13;;;;;;;9.86;52.69;100726.94;5053426;28;20056;-88
2021/04/05 07:02:50;;;;;;;7.65;2.58;;;;;;;9.94;52.48;100729.13;5054693;28;20035;-89
2021/04/05 07:05:44;;;;;;;12.90;3.38;;;;;;;9.51;53.01;100731.66;5054828;28;20021;-89
2021/04/05 07:08:18;;;;;;;9.50;2.10;;;;;;;9.29;52.10;100729.44;5053366;28;20047;-88
2021/04/05 07:10:58;;;;;;;17.00;2.58;;;;;;;9.62;50.87;100723.16;5068592;22;20440;-86
2021/04/05 07:13:37;;;;;;;8.20;2.45;;;;;;;9.41;50.83;100725.25;5012964;28;20046;-86
2021/04/05 07:16:11;;;;;;;11.30;2.70;;;;;;;9.35;51.13;100728.25;5013405;28;20480;-86
2021/04/05 07:18:52;;;;;;;11.35;2.53;;;;;;;9.80;50.13;100743.06;5013776;28;20113;-87
2021/04/05 07:21:36;;;;;;;8.10;2.33;;;;;;;9.58;49.14;100748.72;5013349;28;20096;-86
2021/04/05 07:24:20;;;;;;;6.63;1.92;;;;;;;9.36;49.24;100756.13;5011806;28;20037;-87
2021/04/05 07:27:23;;;;;;;12.88;2.53;;;;;;;9.49;50.57;100765.81;5004123;28;20029;-87
2021/04/05 07:29:51;;;;;;;;;;;;;;;9.91;49.37;100761.63;5013491;28;20029;-86
2021/04/05 07:32:35;;;;;;;11.63;2.58;;;;;;;9.72;49.28;100763.63;5014341;28;19920;-86
2021/04/05 07:35:18;;;;;;;9.02;2.38;;;;;;;9.59;49.24;100770.53;5014101;28;20100;-87
2021/04/05 07:38:09;;;;;;;9.52;2.45;;;;;;;9.93;48.03;100769.38;5010567;28;20061;-87
2021/04/05 07:40:52;;;;;;;6.63;1.92;;;;;;;9.98;49.00;100762.09;5013358;28;20141;-86
2021/04/05 07:43:46;;;;;;;11.45;4.47;;;;;;;10.12;49.28;100769.13;5011776;28;21811;-87
2021/04/05 07:46:17;;;;;;;10.38;2.63;;;;;;;10.21;48.91;100768.59;5011390;28;20142;-87
2021/04/05 07:48:54;;;;;;;14.50;2.20;;;;;;;10.35;48.57;100765.16;5012843;28;20026;-87
2021/04/05 07:51:27;;;;;;;8.05;2.08;;;;;;;10.23;48.31;100766.72;5013311;28;20034;-87
2021/04/05 07:54:03;;;;;;;12.10;2.80;;;;;;;10.17;49.23;100772.34;5013175;28;20030;-87
2021/04/05 07:56:34;;;;;;;14.13;2.97;;;;;;;10.13;48.43;100776.09;5012868;28;20065;-86
2021/04/05 07:59:12;;;;;;;8.73;2.20;;;;;;;10.31;47.58;100776.78;5013412;28;20037;-87
2021/04/05 08:02:35;;;;;;;12.07;2.20;;;;;;;10.73;46.19;100766.34;5012687;28;20480;-86
2021/04/05 08:05:29;;;;;;;4.93;1.63;;;;;;;10.73;45.83;100764.56;4965090;28;20038;-86
2021/04/05 08:08:06;;;;;;;9.38;1.95;;;;;;;10.82;45.71;100763.13;5013035;28;20042;-86
2021/04/05 08:10:55;;;;;;;9.93;2.95;;;;;;;10.45;45.90;100761.03;5009732;28;20437;-86
2021/04/05 08:13:50;;;;;;;10.68;2.10;;;;;;;10.88;46.14;100774.09;5012228;28;20468;-87
2021/04/05 08:16:42;;;;;;;9.30;3.13;;;;;;;11.24;45.05;100777.09;5007169;28;20476;-84
2021/04/05 08:19:13;;;;;;;6.40;1.70;;;;;;;11.63;43.95;100784.16;5012924;28;20040;-85
2021/04/05 08:21:52;;;;;;;10.70;2.15;;;;;;;11.73;43.90;100781.75;5010611;28;20026;-85
2021/04/05 08:24:43;;;;;;;9.13;2.25;;;;;;;12.04;42.88;100777.91;5013553;28;20061;-85
2021/04/05 08:27:31;;;;;;;8.32;2.80;;;;;;;11.98;43.22;100774.88;5012091;28;20025;-89
2021/04/05 08:30:21;;;;;;;9.73;2.30;;;;;;;11.13;43.31;100779.56;4993094;28;20366;-86
2021/04/05 08:33:16;;;;;;;5.38;1.67;;;;;;;11.55;43.68;100790.84;4993974;28;20564;-86
2021/04/05 08:35:48;;;;;;;10.65;1.92;;;;;;;11.40;42.82;100782.19;5000102;28;20026;-85
2021/04/05 08:38:25;;;;;;;8.35;2.03;;;;;;;11.39;44.70;100799.72;5011536;28;20030;-85
2021/04/05 08:40:59;;;;;;;6.10;1.25;;;;;;;11.25;42.80;100811.16;5012563;28;20026;-84
2021/04/05 08:43:52;;;;;;;7.85;1.30;;;;;;;11.19;43.46;100803.66;5010132;28;20037;-84
2021/04/05 08:46:28;;;;;;;5.82;1.83;;;;;;;11.28;44.15;100813.59;5012283;28;20034;-84
2021/04/05 08:48:57;;;;;;;9.05;1.42;;;;;;;11.37;44.09;100812.13;5010050;28;20072;-84
2021/04/05 08:51:28;;;;;;;7.38;1.70;;;;;;;11.62;43.96;100807.94;5004823;28;20058;-84
2021/04/05 08:53:57;;;;;;;12.70;2.28;;;;;;;11.70;44.23;100813.50;4995214;28;20038;-85
2021/04/05 08:56:32;;;;;;;8.30;1.50;;;;;;;12.05;45.26;100813.00;5012115;28;20083;-85
2021/04/05 08:59:22;;;;;;;8.02;1.30;;;;;;;12.68;43.43;100822.66;5012534;28;20079;-85
2021/04/05 09:01:54;;;;;;;5.05;0.90;;;;;;;13.47;41.79;100831.09;5012262;28;20058;-84
2021/04/05 09:04:24;;;;;;;6.95;1.25;;;;;;;14.34;41.72;100835.22;5012458;28;20076;-85
2021/04/05 09:07:12;;;;;;;6.40;0.98;;;;;;;14.93;39.04;100832.38;5011900;28;20029;-85
2021/04/05 09:09:39;;;;;;;3.40;0.85;;;;;;;16.41;37.07;100833.44;5012430;28;20056;-85
2021/04/05 09:12:06;;;;;;;3.08;1.02;;;;;;;16.06;35.85;100840.78;4998433;28;20022;-85
2021/04/05 09:14:45;;;;;;;8.63;1.25;;;;;;;15.55;37.00;100844.13;5012376;28;20033;-85
2021/04/05 09:17:28;;;;;;;3.80;1.10;;;;;;;15.36;37.00;100855.34;5007862;28;20030;-85
2021/04/05 09:20:20;;;;;;;5.22;1.15;;;;;;;14.29;39.51;100846.13;5011873;28;20029;-86
2021/04/05 09:23:21;;;;;;;;;;;;;;;13.97;39.89;100848.56;5012653;28;20026;-83
2021/04/05 09:25:48;;;;;;;5.00;1.10;;;;;;;13.75;39.50;100841.41;4946872;29;20464;-85
2021/04/05 09:28:46;;;;;;;5.15;0.90;;;;;;;12.68;41.56;100849.00;5000523;28;20050;-85
2021/04/05 09:31:42;;;;;;;5.20;1.08;;;;;;;12.10;42.82;100843.31;5010449;28;20029;-84
2021/04/05 09:34:16;;;;;;;9.25;1.98;;;;;;;12.05;43.48;100850.66;4994639;28;20511;-84
2021/04/05 09:37:15;;;;;;;35.97;5.03;;;;;;;11.80;44.62;100858.47;5009242;28;20080;-84
2021/04/05 09:40:05;;;;;;;6.80;0.90;;;;;;;11.27;44.52;100858.38;5008565;28;20022;-84
2021/04/05 09:42:36;;;;;;;7.88;1.17;;;;;;;11.78;42.74;100848.03;5011233;28;20104;-84
2021/04/05 09:45:26;;;;;;;8.03;1.37;;;;;;;11.97;41.50;100862.66;5009823;28;20025;-84
2021/04/05 09:48:28;;;;;;;3.50;0.93;;;;;;;12.32;41.17;100862.91;5012837;28;20026;-83
2021/04/05 09:51:22;;;;;;;5.22;1.00;;;;;;;11.29;40.44;100872.25;5016854;28;20033;-83
2021/04/05 09:54:15;;;;;;;5.28;0.60;;;;;;;11.62;39.85;100873.69;5015236;28;20018;-84
2021/04/05 09:56:51;;;;;;;2.97;0.73;;;;;;;11.52;39.50;100868.16;5011838;28;20030;-84
2021/04/05 09:59:23;;;;;;;5.75;0.77;;;;;;;11.44;39.57;100868.66;5010858;28;20113;-83
2021/04/05 10:01:50;;;;;;;;;;;;;;;11.59;39.80;100873.84;5012139;28;20076;-84
2021/04/05 10:04:22;;;;;;;3.25;0.70;;;;;;;10.93;40.35;100881.50;5011406;28;19945;-84
2021/04/05 10:06:50;;;;;;;3.05;1.00;;;;;;;11.19;39.92;100871.16;5009789;28;20025;-85
2021/04/05 10:09:19;;;;;;;3.13;0.75;;;;;;;11.76;40.42;100872.78;5011639;28;20097;-87
2021/04/05 10:11:46;;;;;;;2.72;0.70;;;;;;;11.84;39.91;100866.06;5011752;28;20060;-83
2021/04/05 10:14:18;;;;;;;6.07;0.70;;;;;;;12.29;40.80;100869.22;4992093;28;20049;-84
2021/04/05 10:16:52;;;;;;;1.35;0.70;;;;;;;12.49;40.37;100874.94;4991959;28;20041;-84
2021/04/05 10:19:24;;;;;;;3.00;0.90;;;;;;;12.95;40.31;100882.25;5002557;28;20113;-84
2021/04/05 10:22:08;;;;;;;;;;;;;;;12.26;40.51;100874.72;5011326;28;20025;-83
2021/04/05 10:24:41;;;;;;;3.35;1.02;;;;;;;13.04;38.87;100867.59;5011622;28;19940;-84
2021/04/05 10:27:09;;;;;;;2.97;0.70;;;;;;;13.44;37.88;100868.25;5011159;28;20273;-84
2021/04/05 10:29:36;;;;;;;2.30;0.73;;;;;;;13.29;37.63;100874.63;5009625;28;20029;-84
2021/04/05 10:32:04;;;;;;;3.42;0.70;;;;;;;13.00;37.83;100880.16;5010739;28;20029;-84
2021/04/05 10:34:34;;;;;;;4.50;0.80;;;;;;;14.04;36.83;100879.69;5011114;28;20026;-84
2021/04/05 10:37:36;;;;;;;4.72;0.98;;;;;;;14.37;34.63;100874.59;5009685;28;20542;-84
2021/04/05 10:40:02;;;;;;;2.67;0.80;;;;;;;16.42;32.47;100881.03;4989809;28;20088;-84
2021/04/05 10:42:33;;;;;;;3.10;0.70;;;;;;;17.18;31.43;100887.81;5005426;28;20038;-85
2021/04/05 10:45:15;;;;;;;3.85;0.60;;;;;;;17.73;30.52;100890.00;5010797;28;20034;-85
2021/04/05 10:48:06;;;;;;;1.00;0.40;;;;;;;19.70;27.71;100884.75;5007724;28;20034;-85
2021/04/05 10:50:52;;;;;;;1.30;0.30;;;;;;;19.04;28.11;100894.69;5000346;28;20049;-85
2021/04/05 10:53:19;;;;;;;3.70;0.88;;;;;;;18.93;27.65;100900.22;5010397;28;20029;-85
2021/04/05 10:55:50;;;;;;;2.03;0.65;;;;;;;19.03;28.37;100893.84;5010712;28;20022;-85
2021/04/05 10:58:22;;;;;;;2.25;0.50;;;;;;;20.76;27.09;100896.28;5009638;28;20030;-86
2021/04/05 11:00:53;;;;;;;6.05;0.70;;;;;;;21.15;25.73;100900.28;5009699;28;20026;-85
2021/04/05 11:03:22;;;;;;;2.58;0.60;;;;;;;19.97;26.51;100918.53;5010452;28;20030;-85
2021/04/05 11:05:51;;;;;;;5.43;0.90;;;;;;;18.17;29.10;100939.13;5010602;28;20022;-85
2021/04/05 11:08:21;;;;;;;2.28;0.70;;;;;;;16.57;30.67;100945.16;5010350;28;20037;-85
2021/04/05 11:10:48;;;;;;;2.58;0.80;;;;;;;16.34;31.19;100940.97;5010324;28;20046;-85
2021/04/05 11:13:20;;;;;;;1.33;0.50;;;;;;;16.23;31.32;100944.50;5010291;28;20111;-85
2021/04/05 11:15:46;;;;;;;2.47;0.50;;;;;;;16.15;32.66;100939.84;5010194;28;20026;-84
2021/04/05 11:18:15;;;;;;;3.25;0.73;;;;;;;17.03;30.25;100933.28;5011052;28;20029;-85
2021/04/05 11:20:43;;;;;;;4.82;0.88;;;;;;;16.16;32.85;100953.94;5012528;28;20026;-84
2021/04/05 11:23:12;;;;;;;1.27;0.50;;;;;;;15.92;33.54;100947.03;5014790;28;20054;-85
2021/04/05 11:25:43;;;;;;;2.72;0.85;;;;;;;15.61;33.56;100953.94;5014704;28;20218;-85
2021/04/05 11:28:15;;;;;;;2.13;0.98;;;;;;;14.58;35.18;100968.09;5014684;28;20495;-84
2021/04/05 11:30:41;;;;;;;;;;;;;;;14.72;36.33;100975.00;5014262;28;20026;-84
2021/04/05 11:33:12;;;;;;;4.95;1.17;;;;;;;14.39;36.60;100976.53;5014270;28;19913;-84
2021/04/05 11:35:40;;;;;;;3.30;1.00;;;;;;;13.87;37.26;100973.31;5014567;28;20018;-85
2021/04/05 11:38:10;;;;;;;5.13;1.50;;;;;;;13.33;37.74;100978.09;5014481;28;20026;-84
2021/04/05 11:40:36;;;;;;;4.15;1.35;;;;;;;12.85;38.88;100976.09;5014208;28;20026;-84
2021/04/05 11:43:10;;;;;;;4.00;1.38;;;;;;;13.75;36.12;100971.56;5014450;28;20037;-84
2021/04/05 11:45:42;;;;;;;1.98;1.20;;;;;;;15.66;34.96;100965.84;5014393;28;20112;-84
2021/04/05 11:48:17;;;;;;;4.43;1.20;;;;;;;16.59;34.30;100980.34;5014458;28;20116;-85
2021/04/05 11:50:43;;;;;;;3.65;1.30;;;;;;;15.12;34.39;100985.13;5014379;28;20030;-85
2021/04/05 11:53:20;;;;;;;2.65;1.20;;;;;;;15.05;33.93;100994.53;5014273;28;20018;-84
2021/04/05 11:55:47;;;;;;;1.45;0.90;;;;;;;14.99;35.49;101001.13;5014141;28;20084;-84
2021/04/05 11:58:38;;;;;;;3.05;1.27;;;;;;;14.29;35.13;101012.53;5014069;28;20033;-84
2021/04/05 12:01:09;;;;;;;4.10;1.20;;;;;;;13.89;36.26;101003.09;5013484;28;20492;-84
2021/04/05 12:03:59;;;;;;;2.25;1.02;;;;;;;14.51;36.12;101009.13;5013699;28;20030;-85